createdAt,value
2018-09-23T00:00:37.011Z,56.68
2018-09-23T00:01:37.216Z,56.63
2018-09-23T00:02:37.216Z,56.61
2018-09-23T00:03:36.931Z,56.64
2018-09-23T00:04:37.040Z,56.63
2018-09-23T00:05:37.005Z,56.65
2018-09-23T00:06:36.849Z,56.69
2018-09-23T00:07:36.973Z,56.65
2018-09-23T00:08:37.208Z,56.65
2018-09-23T00:09:36.876Z,56.68
2018-09-23T00:10:36.973Z,56.71
2018-09-23T00:11:36.983Z,56.7
2018-09-23T00:12:36.951Z,56.68
2018-09-23T00:13:36.922Z,56.67
2018-09-23T00:14:36.705Z,56.68
2018-09-23T00:15:36.817Z,56.68
2018-09-23T00:16:36.934Z,56.63
2018-09-23T00:17:37.236Z,56.65
2018-09-23T00:18:36.775Z,56.61
2018-09-23T00:19:36.889Z,56.63
2018-09-23T00:20:37.048Z,56.68
2018-09-23T00:21:36.978Z,56.68
2018-09-23T00:22:36.894Z,56.72
2018-09-23T00:23:37.915Z,56.71
2018-09-23T00:24:37.120Z,56.7
2018-09-23T00:25:36.987Z,56.72
2018-09-23T00:26:36.856Z,56.66
2018-09-23T00:27:36.947Z,56.65
2018-09-23T00:28:37.133Z,56.64
2018-09-23T00:29:36.727Z,56.68
2018-09-23T00:30:37.131Z,56.72
2018-09-23T00:31:36.930Z,56.73
2018-09-23T00:32:36.792Z,56.73
2018-09-23T00:33:36.986Z,56.77
2018-09-23T00:34:36.950Z,56.72
2018-09-23T00:35:36.940Z,56.79
2018-09-23T00:36:36.820Z,56.74
2018-09-23T00:37:36.895Z,56.78
2018-09-23T00:38:37.024Z,56.81
2018-09-23T00:39:37.054Z,56.74
2018-09-23T00:40:37.018Z,56.78
2018-09-23T00:41:37.097Z,56.78
2018-09-23T00:42:36.760Z,56.77
2018-09-23T00:43:37.084Z,56.8
2018-09-23T00:44:37.305Z,56.8
2018-09-23T00:45:37.317Z,56.84
2018-09-23T00:46:36.836Z,56.77
2018-09-23T00:47:36.752Z,56.81
2018-09-23T00:48:36.956Z,56.79
2018-09-23T00:49:36.891Z,56.8
2018-09-23T00:50:37.172Z,56.81
2018-09-23T00:51:36.831Z,56.84
2018-09-23T00:52:36.995Z,56.81
2018-09-23T00:53:37.108Z,56.82
2018-09-23T00:54:37.214Z,56.8
2018-09-23T00:55:37.009Z,56.83
2018-09-23T00:56:36.886Z,56.82
2018-09-23T00:57:37.128Z,56.84
2018-09-23T00:58:36.809Z,56.79
2018-09-23T00:59:36.868Z,56.81
2018-09-23T01:00:36.894Z,56.82
2018-09-23T01:01:36.786Z,56.8
2018-09-23T01:02:36.745Z,56.83
2018-09-23T01:03:36.971Z,56.86
2018-09-23T01:04:36.897Z,56.85
2018-09-23T01:05:36.904Z,56.86
2018-09-23T01:06:36.865Z,56.91
2018-09-23T01:07:36.917Z,56.87
2018-09-23T01:08:37.085Z,56.87
2018-09-23T01:09:36.997Z,56.85
2018-09-23T01:10:36.754Z,56.85
2018-09-23T01:11:37.068Z,56.81
2018-09-23T01:12:36.896Z,56.83
2018-09-23T01:13:36.860Z,56.86
2018-09-23T01:14:36.768Z,56.83
2018-09-23T01:15:37.043Z,56.89
2018-09-23T01:16:36.925Z,56.89
2018-09-23T01:17:37.034Z,56.87
2018-09-23T01:18:36.853Z,56.89
2018-09-23T01:19:36.805Z,56.92
2018-09-23T01:20:36.832Z,56.94
2018-09-23T01:21:37.409Z,56.98
2018-09-23T01:22:37.095Z,56.94
2018-09-23T01:23:37.114Z,56.9
2018-09-23T01:24:36.754Z,56.89
2018-09-23T01:25:37.213Z,56.88
2018-09-23T01:26:36.826Z,56.9
2018-09-23T01:27:36.859Z,56.93
2018-09-23T01:28:36.967Z,56.93
2018-09-23T01:29:37.176Z,56.98
2018-09-23T01:30:37.160Z,56.97
2018-09-23T01:31:36.846Z,56.94
2018-09-23T01:32:36.744Z,56.97
2018-09-23T01:33:36.842Z,56.99
2018-09-23T01:34:36.952Z,56.96
2018-09-23T01:35:36.725Z,57
2018-09-23T01:36:37.044Z,56.99
2018-09-23T01:37:36.887Z,57
2018-09-23T01:38:37.099Z,56.99
2018-09-23T01:39:37.207Z,57
2018-09-23T01:40:37.030Z,56.97
2018-09-23T01:41:36.771Z,56.98
2018-09-23T01:42:36.914Z,57
2018-09-23T01:43:37.061Z,57
2018-09-23T01:44:36.938Z,56.97
2018-09-23T01:45:36.987Z,56.95
2018-09-23T01:46:37.185Z,56.96
2018-09-23T01:47:36.955Z,56.99
2018-09-23T01:48:37.074Z,56.95
2018-09-23T01:49:36.809Z,56.93
2018-09-23T01:50:36.880Z,56.93
2018-09-23T01:51:36.869Z,56.95
2018-09-23T01:52:36.892Z,57.02
2018-09-23T01:53:36.917Z,56.97
2018-09-23T01:54:37.104Z,56.99
2018-09-23T01:55:36.883Z,57
2018-09-23T01:56:36.926Z,56.97
2018-09-23T01:57:36.823Z,57.01
2018-09-23T01:58:36.809Z,56.96
2018-09-23T01:59:37.070Z,56.98
2018-09-23T02:00:36.887Z,57.03
2018-09-23T02:01:36.804Z,57.01
2018-09-23T02:02:36.798Z,57.03
2018-09-23T02:03:36.890Z,57.01
2018-09-23T02:04:37.282Z,57.03
2018-09-23T02:05:36.749Z,57.01
2018-09-23T02:06:36.915Z,57.02
2018-09-23T02:07:36.954Z,57.04
2018-09-23T02:08:37.047Z,57.07
2018-09-23T02:09:37.096Z,57.01
2018-09-23T02:10:36.934Z,57.02
2018-09-23T02:11:36.726Z,57.05
2018-09-23T02:12:36.848Z,57.04
2018-09-23T02:13:37.286Z,57.06
2018-09-23T02:14:36.702Z,57.06
2018-09-23T02:15:37.101Z,57.15
2018-09-23T02:16:36.987Z,57.11
2018-09-23T02:17:36.969Z,57.07
2018-09-23T02:18:36.799Z,57.11
2018-09-23T02:19:36.888Z,57.11
2018-09-23T02:20:36.771Z,57.11
2018-09-23T02:21:37.071Z,57.09
2018-09-23T02:22:37.111Z,57.06
2018-09-23T02:23:36.744Z,57.09
2018-09-23T02:24:37.673Z,57.09
2018-09-23T02:25:36.922Z,57.13
2018-09-23T02:26:36.938Z,57.1
2018-09-23T02:27:37.053Z,57.1
2018-09-23T02:28:37.162Z,57.12
2018-09-23T02:29:36.853Z,57.1
2018-09-23T02:30:36.999Z,57.17
2018-09-23T02:31:37.247Z,57.14
2018-09-23T02:32:36.872Z,57.13
2018-09-23T02:33:37.272Z,57.18
2018-09-23T02:34:37.075Z,57.13
2018-09-23T02:35:37.050Z,57.11
2018-09-23T02:36:37.108Z,57.13
2018-09-23T02:37:36.872Z,57.07
2018-09-23T02:38:37.229Z,57.15
2018-09-23T02:39:36.966Z,57.13
2018-09-23T02:40:36.948Z,57.16
2018-09-23T02:41:37.014Z,57.16
2018-09-23T02:42:36.919Z,57.16
2018-09-23T02:43:36.823Z,57.15
2018-09-23T02:44:36.939Z,57.15
2018-09-23T02:45:36.875Z,57.17
2018-09-23T02:46:37.083Z,57.2
2018-09-23T02:47:36.900Z,57.17
2018-09-23T02:48:37.002Z,57.17
2018-09-23T02:49:36.999Z,57.16
2018-09-23T02:50:36.835Z,57.18
2018-09-23T02:51:36.869Z,57.18
2018-09-23T02:52:37.114Z,57.2
2018-09-23T02:53:37.112Z,57.14
2018-09-23T02:54:36.911Z,57.16
2018-09-23T02:55:36.904Z,57.15
2018-09-23T02:56:36.813Z,57.15
2018-09-23T02:57:36.852Z,57.14
2018-09-23T02:58:36.913Z,57.17
2018-09-23T02:59:37.306Z,57.16
2018-09-23T03:00:37.114Z,57.21
2018-09-23T03:01:37.120Z,57.17
2018-09-23T03:02:36.843Z,57.16
2018-09-23T03:03:37.058Z,57.22
2018-09-23T03:04:36.796Z,57.21
2018-09-23T03:05:36.889Z,57.24
2018-09-23T03:06:36.813Z,57.21
2018-09-23T03:07:37.011Z,57.19
2018-09-23T03:08:37.132Z,57.2
2018-09-23T03:09:36.814Z,57.22
2018-09-23T03:10:36.840Z,57.22
2018-09-23T03:11:37.225Z,57.2
2018-09-23T03:12:36.896Z,57.23
2018-09-23T03:13:36.931Z,57.22
2018-09-23T03:14:37.005Z,57.23
2018-09-23T03:15:37.175Z,57.22
2018-09-23T03:16:36.971Z,57.28
2018-09-23T03:17:36.768Z,57.26
2018-09-23T03:18:37.123Z,57.26
2018-09-23T03:19:36.949Z,57.27
2018-09-23T03:20:36.777Z,57.25
2018-09-23T03:21:36.723Z,57.28
2018-09-23T03:22:36.955Z,57.27
2018-09-23T03:23:37.069Z,57.27
2018-09-23T03:24:36.761Z,57.28
2018-09-23T03:25:36.777Z,57.25
2018-09-23T03:26:36.993Z,57.25
2018-09-23T03:27:37.005Z,57.27
2018-09-23T03:28:36.937Z,57.28
2018-09-23T03:29:36.937Z,57.31
2018-09-23T03:30:36.921Z,57.26
2018-09-23T03:31:36.970Z,57.26
2018-09-23T03:32:37.082Z,57.23
2018-09-23T03:33:36.918Z,57.26
2018-09-23T03:34:36.968Z,57.26
2018-09-23T03:35:37.096Z,57.32
2018-09-23T03:36:36.926Z,57.29
2018-09-23T03:37:36.915Z,57.31
2018-09-23T03:38:36.944Z,57.3
2018-09-23T03:39:37.151Z,57.35
2018-09-23T03:40:37.421Z,57.34
2018-09-23T03:41:37.187Z,57.35
2018-09-23T03:42:37.051Z,57.33
2018-09-23T03:43:36.971Z,57.36
2018-09-23T03:44:37.088Z,57.35
2018-09-23T03:45:36.917Z,57.34
2018-09-23T03:46:36.985Z,57.35
2018-09-23T03:47:36.943Z,57.33
2018-09-23T03:48:36.887Z,57.34
2018-09-23T03:49:36.934Z,57.31
2018-09-23T03:50:37.091Z,57.3
2018-09-23T03:51:36.941Z,57.27
2018-09-23T03:52:37.133Z,57.3
2018-09-23T03:53:37.065Z,57.35
2018-09-23T03:54:36.866Z,57.37
2018-09-23T03:55:37.364Z,57.31
2018-09-23T03:56:37.045Z,57.32
2018-09-23T03:57:36.828Z,57.33
2018-09-23T03:58:36.919Z,57.31
2018-09-23T03:59:37.062Z,57.33
2018-09-23T04:00:36.826Z,57.32
2018-09-23T04:01:36.898Z,57.38
2018-09-23T04:02:37.133Z,57.39
2018-09-23T04:03:37.022Z,57.33
2018-09-23T04:04:36.930Z,57.38
2018-09-23T04:05:36.886Z,57.39
2018-09-23T04:06:37.130Z,57.41
2018-09-23T04:08:37.009Z,57.39
2018-09-23T04:09:37.284Z,57.37
2018-09-23T04:10:36.742Z,57.37
2018-09-23T04:11:36.730Z,57.36
2018-09-23T04:12:36.987Z,57.33
2018-09-23T04:13:37.326Z,57.37
2018-09-23T04:14:36.809Z,57.41
2018-09-23T04:15:36.833Z,57.38
2018-09-23T04:16:36.799Z,57.38
2018-09-23T04:17:37.156Z,57.36
2018-09-23T04:18:37.005Z,57.39
2018-09-23T04:19:37.079Z,57.38
2018-09-23T04:20:36.766Z,57.42
2018-09-23T04:21:36.798Z,57.4
2018-09-23T04:22:36.847Z,57.36
2018-09-23T04:23:36.703Z,57.39
2018-09-23T04:24:36.900Z,57.42
2018-09-23T04:25:36.922Z,57.39
2018-09-23T04:26:37.226Z,57.38
2018-09-23T04:27:36.777Z,57.4
2018-09-23T04:28:36.970Z,57.4
2018-09-23T04:29:36.997Z,57.39
2018-09-23T04:30:36.837Z,57.4
2018-09-23T04:31:38.419Z,57.38
2018-09-23T04:32:36.712Z,57.36
2018-09-23T04:33:36.758Z,57.37
2018-09-23T04:34:36.867Z,57.38
2018-09-23T04:35:36.802Z,57.38
2018-09-23T04:36:36.754Z,57.35
2018-09-23T04:37:36.860Z,57.35
2018-09-23T04:38:36.835Z,57.36
2018-09-23T04:39:36.761Z,57.36
2018-09-23T04:40:36.793Z,57.33
2018-09-23T04:41:37.046Z,57.34
2018-09-23T04:42:36.858Z,57.36
2018-09-23T04:43:36.873Z,57.35
2018-09-23T04:44:36.918Z,57.37
2018-09-23T04:45:37.170Z,57.36
2018-09-23T04:46:39.190Z,57.36
2018-09-23T04:47:36.692Z,57.38
2018-09-23T04:48:36.681Z,57.35
2018-09-23T04:49:37.774Z,57.33
2018-09-23T04:50:37.028Z,57.36
2018-09-23T04:51:36.781Z,57.36
2018-09-23T04:52:36.865Z,57.33
2018-09-23T04:53:36.771Z,57.35
2018-09-23T04:54:36.850Z,57.33
2018-09-23T04:55:36.789Z,57.34
2018-09-23T04:56:36.705Z,57.31
2018-09-23T04:57:36.672Z,57.36
2018-09-23T04:59:38.353Z,57.33
2018-09-23T05:00:36.708Z,57.35
2018-09-23T05:01:37.005Z,57.38
2018-09-23T05:02:37.111Z,57.39
2018-09-23T05:03:36.709Z,57.38
2018-09-23T05:04:36.931Z,57.35
2018-09-23T05:05:37.293Z,57.37
2018-09-23T05:06:36.765Z,57.4
2018-09-23T05:07:36.781Z,57.38
2018-09-23T05:08:37.069Z,57.38
2018-09-23T05:09:36.783Z,57.38
2018-09-23T05:10:36.964Z,57.37
2018-09-23T05:11:36.789Z,57.37
2018-09-23T05:12:36.798Z,57.39
2018-09-23T05:13:36.908Z,57.38
2018-09-23T05:14:36.644Z,57.37
2018-09-23T05:15:36.886Z,57.36
2018-09-23T05:16:36.741Z,57.33
2018-09-23T05:17:36.786Z,57.42
2018-09-23T05:18:36.977Z,57.4
2018-09-23T05:19:37.932Z,57.36
2018-09-23T05:20:37.551Z,57.39
2018-09-23T05:21:36.881Z,57.44
2018-09-23T05:22:36.799Z,57.43
2018-09-23T05:23:36.876Z,57.45
2018-09-23T05:24:37.357Z,57.44
2018-09-23T05:25:36.674Z,57.43
2018-09-23T05:26:36.950Z,57.43
2018-09-23T05:27:36.630Z,57.46
2018-09-23T05:28:36.848Z,57.43
2018-09-23T05:29:36.656Z,57.4
2018-09-23T05:30:36.760Z,57.4
2018-09-23T05:31:36.847Z,57.39
2018-09-23T05:32:37.363Z,57.43
2018-09-23T05:33:36.758Z,57.42
2018-09-23T05:34:36.749Z,57.39
2018-09-23T05:35:36.983Z,57.38
2018-09-23T05:36:36.759Z,57.41
2018-09-23T05:37:36.708Z,57.38
2018-09-23T05:38:39.029Z,57.35
2018-09-23T05:39:38.457Z,57.38
2018-09-23T05:40:37.287Z,57.38
2018-09-23T05:41:36.835Z,57.39
2018-09-23T05:42:36.794Z,57.35
2018-09-23T05:43:36.893Z,57.41
2018-09-23T05:44:36.977Z,57.41
2018-09-23T05:45:37.151Z,57.42
2018-09-23T05:46:36.979Z,57.41
2018-09-23T05:47:38.692Z,57.41
2018-09-23T05:48:38.663Z,57.42
2018-09-23T05:49:37.087Z,57.35
2018-09-23T05:50:38.790Z,57.38
2018-09-23T05:51:36.809Z,57.38
2018-09-23T05:52:39.954Z,57.38
2018-09-23T05:53:36.902Z,57.37
2018-09-23T05:54:36.796Z,57.43
2018-09-23T05:55:36.800Z,57.43
2018-09-23T05:56:36.998Z,57.38
2018-09-23T05:57:36.799Z,57.38
2018-09-23T05:58:36.651Z,57.4
2018-09-23T05:59:36.722Z,57.39
2018-09-23T06:00:36.887Z,57.41
2018-09-23T06:01:36.930Z,57.41
2018-09-23T06:02:36.617Z,57.42
2018-09-23T06:03:36.832Z,57.42
2018-09-23T06:04:36.971Z,57.41
2018-09-23T06:05:36.778Z,57.43
2018-09-23T06:06:36.808Z,57.46
2018-09-23T06:07:36.964Z,57.45
2018-09-23T06:08:36.687Z,57.47
2018-09-23T06:09:36.747Z,57.48
2018-09-23T06:10:36.595Z,57.47
2018-09-23T06:11:36.886Z,57.43
2018-09-23T06:12:36.669Z,57.43
2018-09-23T06:13:36.660Z,57.46
2018-09-23T06:14:36.809Z,57.43
2018-09-23T06:15:36.678Z,57.41
2018-09-23T06:16:40.540Z,57.42
2018-09-23T06:17:36.867Z,57.45
2018-09-23T06:18:36.787Z,57.48
2018-09-23T06:19:36.809Z,57.47
2018-09-23T06:20:36.812Z,57.46
2018-09-23T06:21:36.842Z,57.47
2018-09-23T06:22:36.641Z,57.52
2018-09-23T06:23:36.892Z,57.48
2018-09-23T06:24:37.350Z,57.48
2018-09-23T06:25:37.014Z,57.49
2018-09-23T06:26:36.758Z,57.5
2018-09-23T06:27:36.947Z,57.53
2018-09-23T06:28:36.883Z,57.54
2018-09-23T06:29:36.913Z,57.52
2018-09-23T06:30:36.740Z,57.5
2018-09-23T06:31:36.751Z,57.53
2018-09-23T06:32:36.938Z,57.52
2018-09-23T06:33:36.902Z,57.55
2018-09-23T06:34:37.071Z,57.48
2018-09-23T06:35:36.736Z,57.48
2018-09-23T06:36:36.921Z,57.51
2018-09-23T06:37:36.904Z,57.49
2018-09-23T06:38:36.840Z,57.53
2018-09-23T06:39:36.672Z,57.53
2018-09-23T06:40:37.058Z,57.47
2018-09-23T06:41:37.126Z,57.48
2018-09-23T06:42:37.154Z,57.53
2018-09-23T06:43:37.548Z,57.53
2018-09-23T06:44:36.855Z,57.55
2018-09-23T06:45:37.269Z,57.52
2018-09-23T06:46:36.966Z,57.53
2018-09-23T06:47:36.780Z,57.5
2018-09-23T06:48:36.776Z,57.53
2018-09-23T06:49:36.706Z,57.57
2018-09-23T06:50:36.780Z,57.55
2018-09-23T06:51:37.148Z,57.53
2018-09-23T06:52:37.539Z,57.53
2018-09-23T06:53:36.709Z,57.54
2018-09-23T06:54:38.336Z,57.6
2018-09-23T06:55:37.595Z,57.55
2018-09-23T06:56:36.800Z,57.52
2018-09-23T06:57:36.912Z,57.54
2018-09-23T06:58:36.936Z,57.52
2018-09-23T07:00:36.809Z,57.53
2018-09-23T07:01:38.537Z,57.49
2018-09-23T07:02:36.966Z,57.52
2018-09-23T07:03:36.875Z,57.55
2018-09-23T07:04:38.053Z,57.51
2018-09-23T07:05:37.056Z,57.54
2018-09-23T07:06:37.120Z,57.54
2018-09-23T07:07:37.161Z,57.53
2018-09-23T07:08:36.848Z,57.53
2018-09-23T07:09:36.963Z,57.51
2018-09-23T07:10:37.849Z,57.55
2018-09-23T07:11:36.866Z,57.54
2018-09-23T07:12:37.022Z,57.57
2018-09-23T07:13:36.762Z,57.55
2018-09-23T07:14:36.869Z,57.55
2018-09-23T07:15:36.675Z,57.57
2018-09-23T07:16:36.730Z,57.56
2018-09-23T07:17:36.805Z,57.54
2018-09-23T07:18:36.796Z,57.58
2018-09-23T07:19:36.892Z,57.56
2018-09-23T07:20:37.038Z,57.51
2018-09-23T07:21:36.653Z,57.56
2018-09-23T07:22:36.871Z,57.56
2018-09-23T07:23:37.323Z,57.59
2018-09-23T07:24:36.789Z,57.55
2018-09-23T07:28:36.837Z,57.51
2018-09-23T07:29:37.001Z,57.51
2018-09-23T07:30:36.822Z,57.58
2018-09-23T07:31:37.113Z,57.58
2018-09-23T07:32:36.757Z,57.51
2018-09-23T07:33:36.839Z,57.57
2018-09-23T07:34:36.810Z,57.53
2018-09-23T07:35:36.679Z,57.61
2018-09-23T07:36:37.046Z,57.57
2018-09-23T07:37:36.665Z,57.57
2018-09-23T07:38:36.919Z,57.56
2018-09-23T07:39:38.228Z,57.58
2018-09-23T07:40:36.868Z,57.54
2018-09-23T07:41:37.451Z,57.56
2018-09-23T07:42:36.881Z,57.58
2018-09-23T07:43:36.751Z,57.54
2018-09-23T07:45:36.792Z,57.6
2018-09-23T07:46:36.826Z,57.54
2018-09-23T07:47:36.912Z,57.55
2018-09-23T07:48:36.909Z,57.55
2018-09-23T07:49:37.010Z,57.56
2018-09-23T07:50:36.679Z,57.52
2018-09-23T07:51:37.060Z,57.5
2018-09-23T07:52:36.927Z,57.51
2018-09-23T07:53:36.720Z,57.51
2018-09-23T07:54:36.868Z,57.51
2018-09-23T07:55:37.080Z,57.53
2018-09-23T07:56:38.334Z,57.56
2018-09-23T07:57:36.908Z,57.52
2018-09-23T07:58:36.835Z,57.5
2018-09-23T07:59:36.864Z,57.44
2018-09-23T08:00:36.829Z,57.52
2018-09-23T08:01:37.005Z,57.48
2018-09-23T08:02:36.952Z,57.5
2018-09-23T08:03:38.005Z,57.52
2018-09-23T08:04:37.880Z,57.5
2018-09-23T08:05:36.699Z,57.52
2018-09-23T08:06:36.857Z,57.53
2018-09-23T08:07:36.865Z,57.55
2018-09-23T08:08:37.405Z,57.54
2018-09-23T08:09:36.875Z,57.52
2018-09-23T08:11:36.855Z,57.47
2018-09-23T08:12:39.033Z,57.55
2018-09-23T08:13:41.702Z,57.54
2018-09-23T08:14:43.045Z,57.54
2018-09-23T08:15:36.886Z,57.51
2018-09-23T08:17:37.103Z,57.5
2018-09-23T08:18:36.798Z,57.53
2018-09-23T08:19:39.174Z,57.49
2018-09-23T08:20:38.604Z,57.48
2018-09-23T08:21:36.774Z,57.49
2018-09-23T08:22:36.864Z,57.48
2018-09-23T08:23:36.767Z,57.46
2018-09-23T08:24:36.897Z,57.49
2018-09-23T08:25:37.900Z,57.45
2018-09-23T08:26:38.355Z,57.47
2018-09-23T08:27:36.878Z,57.42
2018-09-23T08:28:36.970Z,57.46
2018-09-23T08:29:36.944Z,57.47
2018-09-23T08:30:38.073Z,57.44
2018-09-23T08:31:36.567Z,57.57
2018-09-23T08:36:36.808Z,57.89
2018-09-23T08:37:36.958Z,57.98
2018-09-23T08:38:37.079Z,58.01
2018-09-23T08:39:36.967Z,57.95
2018-09-23T08:40:38.349Z,57.93
2018-09-23T08:41:36.803Z,57.96
2018-09-23T08:42:36.642Z,57.97
2018-09-23T08:43:37.018Z,57.92
2018-09-23T08:44:37.149Z,58.03
2018-09-23T08:45:36.593Z,58.2
2018-09-23T08:46:36.838Z,58.14
2018-09-23T08:47:36.899Z,58.24
2018-09-23T08:48:36.630Z,58.17
2018-09-23T08:49:36.913Z,58.31
2018-09-23T08:50:36.884Z,58.14
2018-09-23T08:51:37.104Z,58.2
2018-09-23T08:52:37.059Z,58.26
2018-09-23T08:53:36.985Z,58.2
2018-09-23T08:55:36.974Z,58.26
2018-09-23T08:56:37.516Z,58.26
2018-09-23T08:57:37.152Z,58.45
2018-09-23T08:58:36.696Z,58.4
2018-09-23T08:59:37.006Z,58.37
2018-09-23T09:00:28.173Z,58.57
2018-09-23T09:01:28.142Z,58.79
2018-09-23T09:02:28.533Z,59.07
2018-09-23T09:03:28.613Z,59.18
2018-09-23T09:04:28.511Z,59.34
2018-09-23T09:05:28.312Z,59.49
2018-09-23T09:06:28.516Z,59.55
2018-09-23T09:07:28.480Z,59.58
2018-09-23T09:08:28.405Z,59.75
2018-09-23T09:09:28.374Z,59.81
2018-09-23T09:10:28.585Z,59.76
2018-09-23T09:11:29.583Z,59.83
2018-09-23T09:12:31.839Z,59.86
2018-09-23T09:13:31.761Z,59.88
2018-09-23T09:14:31.765Z,59.99
2018-09-23T09:15:31.638Z,59.92
2018-09-23T09:16:31.944Z,59.8
2018-09-23T09:17:31.727Z,59.83
2018-09-23T09:18:33.857Z,59.79
2018-09-23T09:19:31.952Z,59.87
2018-09-23T09:20:31.666Z,59.79
2018-09-23T09:21:31.778Z,59.8
2018-09-23T09:22:31.733Z,59.7
2018-09-23T09:23:32.043Z,59.81
2018-09-23T09:24:31.640Z,59.8
2018-09-23T09:25:31.935Z,59.74
2018-09-23T09:26:32.403Z,59.62
2018-09-23T09:27:31.861Z,59.72
2018-09-23T09:28:31.551Z,59.75
2018-09-23T09:29:31.947Z,59.82
2018-09-23T09:30:31.534Z,59.64
2018-09-23T09:31:31.908Z,59.68
2018-09-23T09:32:31.667Z,59.83
2018-09-23T09:33:31.807Z,59.8
2018-09-23T09:34:31.664Z,59.8
2018-09-23T09:35:38.223Z,59.75
2018-09-23T09:36:38.443Z,59.82
2018-09-23T09:37:38.778Z,59.83
2018-09-23T09:38:38.738Z,59.91
2018-09-23T09:39:38.129Z,59.81
2018-09-23T09:40:38.620Z,59.91
2018-09-23T09:41:38.637Z,59.8
2018-09-23T09:42:38.806Z,59.91
2018-09-23T09:43:38.450Z,59.9
2018-09-23T09:44:38.224Z,59.99
2018-09-23T09:45:38.658Z,60.08
2018-09-23T09:46:38.573Z,60.02
2018-09-23T09:47:38.779Z,59.93
2018-09-23T09:48:38.068Z,60.13
2018-09-23T09:49:38.163Z,60.15
2018-09-23T09:50:38.315Z,60.14
2018-09-23T09:51:38.335Z,60.22
2018-09-23T09:52:38.396Z,60.25
2018-09-23T09:53:38.265Z,60.21
2018-09-23T09:54:38.257Z,60.21
2018-09-23T09:55:38.543Z,60.13
2018-09-23T09:56:38.531Z,60.2
2018-09-23T09:57:39.339Z,60.22
2018-09-23T09:58:38.278Z,60.23
2018-09-23T09:59:38.338Z,60.17
2018-09-23T10:00:38.188Z,60.24
2018-09-23T10:01:38.405Z,60.09
2018-09-23T10:02:38.210Z,60.14
2018-09-23T10:03:39.063Z,60.21
2018-09-23T10:04:38.441Z,60.22
2018-09-23T10:05:38.152Z,60.06
2018-09-23T10:06:38.241Z,60.16
2018-09-23T10:07:38.236Z,60.23
2018-09-23T10:08:38.255Z,60.1
2018-09-23T10:09:38.685Z,60.13
2018-09-23T10:10:38.236Z,60.1
2018-09-23T10:11:40.256Z,60.01
2018-09-23T10:12:38.139Z,60.13
2018-09-23T10:13:38.276Z,59.95
2018-09-23T10:15:43.763Z,60.03
2018-09-23T10:16:31.999Z,60.08
2018-09-23T10:17:29.712Z,60.05
2018-09-23T10:18:38.912Z,60.07
2018-09-23T10:19:39.033Z,60
2018-09-23T10:20:39.132Z,59.95
2018-09-23T10:21:39.072Z,60.01
2018-09-23T10:23:16.973Z,59.96
2018-09-23T10:24:15.075Z,60.08
2018-09-23T10:25:15.286Z,60.03
2018-09-23T10:26:07.903Z,60.03
2018-09-23T10:27:08.165Z,60.2
2018-09-23T10:28:07.782Z,59.95
2018-09-23T10:29:07.813Z,60.22
2018-09-23T10:30:08.163Z,60.28
2018-09-23T10:31:09.249Z,60.3
2018-09-23T10:32:07.895Z,60.19
2018-09-23T10:33:07.721Z,60.25
2018-09-23T10:34:08.147Z,60.46
2018-09-23T10:35:07.740Z,60.67
2018-09-23T10:36:08.591Z,60.56
2018-09-23T10:37:07.652Z,60.61
2018-09-23T10:38:07.756Z,60.65
2018-09-23T10:39:07.880Z,60.83
2018-09-23T10:40:07.714Z,60.8
2018-09-23T10:41:08.277Z,60.84
2018-09-23T10:42:07.737Z,61.02
2018-09-23T10:43:07.792Z,60.99
2018-09-23T10:44:08.039Z,60.99
2018-09-23T10:45:07.595Z,60.89
2018-09-23T10:46:07.735Z,60.89
2018-09-23T10:47:08.028Z,60.96
2018-09-23T10:48:07.719Z,60.98
2018-09-23T10:48:54.735Z,60.91
2018-09-23T10:49:44.968Z,61.05
2018-09-23T10:50:45.186Z,60.98
2018-09-23T10:51:44.973Z,61
2018-09-23T10:52:45.103Z,60.85
2018-09-23T10:56:08.408Z,60.89
2018-09-23T10:57:02.350Z,60.87
2018-09-23T10:58:02.730Z,60.91
2018-09-23T10:59:02.861Z,60.88
2018-09-23T11:00:02.520Z,60.81
2018-09-23T11:01:02.478Z,60.69
2018-09-23T11:02:02.448Z,60.67
2018-09-23T11:03:13.753Z,60.83
2018-09-23T11:04:15.487Z,60.67
2018-09-23T11:05:14.914Z,60.63
2018-09-23T11:06:13.827Z,60.55
2018-09-23T11:07:14.379Z,60.63
2018-09-23T11:08:14.052Z,60.78
2018-09-23T11:09:13.990Z,60.65
2018-09-23T11:10:14.202Z,60.82
2018-09-23T11:11:14.141Z,60.81
2018-09-23T11:12:14.263Z,60.78
2018-09-23T11:13:34.021Z,60.86
2018-09-23T11:15:03.274Z,60.85
2018-09-23T11:15:31.517Z,60.88
2018-09-23T11:16:31.307Z,60.92
2018-09-23T11:17:31.763Z,60.92
2018-09-23T11:18:31.630Z,60.92
2018-09-23T11:19:31.151Z,60.97
2018-09-23T11:20:31.421Z,60.94
2018-09-23T11:21:31.423Z,60.83
2018-09-23T11:22:31.351Z,60.94
2018-09-23T11:23:32.229Z,61
2018-09-23T11:24:56.482Z,61.08
2018-09-23T11:25:54.843Z,60.91
2018-09-23T11:26:37.686Z,61
2018-09-23T11:28:04.828Z,61.02
2018-09-23T11:29:24.811Z,60.98
2018-09-23T11:30:24.917Z,60.96
2018-09-23T11:31:48.917Z,61.01
2018-09-23T11:38:52.361Z,60.83
2018-09-23T11:39:54.540Z,60.92
2018-09-23T11:40:53.953Z,60.91
2018-09-23T11:41:54.052Z,60.72
2018-09-23T11:43:12.047Z,60.83
2018-09-23T11:44:12.063Z,60.85
2018-09-23T11:45:12.252Z,61.02
2018-09-23T11:46:12.066Z,61.02
2018-09-23T11:47:12.188Z,61
2018-09-23T11:48:12.096Z,60.96
2018-09-23T11:49:12.245Z,60.95
2018-09-23T11:50:12.297Z,61
2018-09-23T11:51:12.012Z,60.97
2018-09-23T11:52:12.158Z,60.92
2018-09-23T11:53:12.034Z,60.96
2018-09-23T11:54:12.009Z,60.92
2018-09-23T11:55:12.589Z,61.01
2018-09-23T11:56:12.191Z,61.06
2018-09-23T11:57:12.156Z,61.05
2018-09-23T11:58:12.017Z,61.05
2018-09-23T11:59:12.518Z,61.05
2018-09-23T12:00:11.973Z,61.07
2018-09-23T12:01:12.280Z,60.99
2018-09-23T12:02:13.388Z,61.03
2018-09-23T12:03:12.074Z,61.03
2018-09-23T12:04:12.148Z,61.03
2018-09-23T12:05:12.121Z,61.01
2018-09-23T12:06:11.928Z,60.99
2018-09-23T12:07:12.299Z,60.99
2018-09-23T12:08:12.412Z,60.97
2018-09-23T12:09:12.088Z,60.95
2018-09-23T12:10:12.833Z,60.95
2018-09-23T12:11:12.345Z,60.94
2018-09-23T12:12:12.328Z,60.99
2018-09-23T12:13:12.284Z,60.92
2018-09-23T12:14:12.442Z,60.91
2018-09-23T12:15:12.356Z,60.93
2018-09-23T12:16:12.099Z,60.84
2018-09-23T12:17:12.200Z,60.84
2018-09-23T12:18:11.951Z,60.82
2018-09-23T12:19:12.061Z,60.82
2018-09-23T12:20:12.116Z,60.83
2018-09-23T12:21:12.055Z,60.9
2018-09-23T12:22:12.931Z,60.87
2018-09-23T12:23:12.459Z,60.83
2018-09-23T12:24:11.953Z,60.85
2018-09-23T12:25:12.338Z,60.91
2018-09-23T12:26:12.291Z,60.87
2018-09-23T12:27:12.166Z,60.86
2018-09-23T12:28:12.338Z,60.88
2018-09-23T12:29:12.380Z,60.86
2018-09-23T12:30:12.255Z,60.86
2018-09-23T12:31:12.182Z,60.87
2018-09-23T12:32:12.286Z,60.87
2018-09-23T12:33:13.281Z,60.85
2018-09-23T12:34:12.201Z,60.8
2018-09-23T12:35:12.133Z,60.87
2018-09-23T12:36:12.251Z,60.71
2018-09-23T12:37:12.440Z,60.78
2018-09-23T12:38:11.977Z,60.87
2018-09-23T12:39:12.209Z,60.91
2018-09-23T12:40:12.263Z,61.08
2018-09-23T12:41:12.026Z,61.1
2018-09-23T12:42:12.324Z,61.01
2018-09-23T12:43:12.204Z,60.99
2018-09-23T12:44:12.274Z,60.99
2018-09-23T12:45:12.018Z,60.96
2018-09-23T12:46:13.743Z,60.94
2018-09-23T12:47:12.316Z,60.91
2018-09-23T12:48:12.121Z,60.87
2018-09-23T12:49:11.918Z,60.85
2018-09-23T12:50:12.156Z,60.81
2018-09-23T12:51:12.487Z,60.75
2018-09-23T12:52:12.149Z,60.75
2018-09-23T12:53:12.078Z,60.68
2018-09-23T12:54:12.015Z,60.65
2018-09-23T12:55:12.145Z,60.59
2018-09-23T12:56:12.178Z,60.59
2018-09-23T12:57:12.150Z,60.54
2018-09-23T12:58:12.111Z,60.53
2018-09-23T12:59:12.202Z,60.49
2018-09-23T13:00:12.010Z,60.44
2018-09-23T13:01:12.043Z,60.42
2018-09-23T13:02:11.975Z,60.37
2018-09-23T13:03:13.320Z,60.36
2018-09-23T13:04:12.150Z,60.35
2018-09-23T13:05:12.269Z,60.34
2018-09-23T13:06:12.095Z,60.3
2018-09-23T13:07:12.038Z,60.26
2018-09-23T13:08:12.163Z,60.23
2018-09-23T13:09:12.112Z,60.17
2018-09-23T13:10:12.203Z,60.17
2018-09-23T13:11:11.989Z,60.01
2018-09-23T13:12:12.390Z,60.05
2018-09-23T13:13:12.044Z,60.02
2018-09-23T13:14:12.539Z,60.05
2018-09-23T13:15:12.139Z,60.09
2018-09-23T13:16:12.178Z,60.01
2018-09-23T13:17:12.210Z,60.09
2018-09-23T13:18:14.306Z,60.05
2018-09-23T13:19:12.271Z,60.1
2018-09-23T13:20:12.361Z,60.37
2018-09-23T13:21:12.204Z,60.43